sensor_id;sensor_type;location;lat;lon;timestamp;pressure;altitude;pressure_sealevel;temperature;humidity
72157;BME280;60035;52.122;5.406;2023-01-29T00:01:52;103239.56;;;2.93;87.87
72157;BME280;60035;52.122;5.406;2023-01-29T00:04:19;103238.75;;;2.94;88.16
72157;BME280;60035;52.122;5.406;2023-01-29T00:06:46;103236.88;;;2.90;88.07
72157;BME280;60035;52.122;5.406;2023-01-29T00:09:12;103233.56;;;2.91;88.14
72157;BME280;60035;52.122;5.406;2023-01-29T00:11:39;103228.44;;;2.89;88.27
72157;BME280;60035;52.122;5.406;2023-01-29T00:14:06;103208.06;;;2.86;88.65
72157;BME280;60035;52.122;5.406;2023-01-29T00:16:33;103204.75;;;2.87;88.66
72157;BME280;60035;52.122;5.406;2023-01-29T00:19:00;103207.28;;;2.87;88.51
72157;BME280;60035;52.122;5.406;2023-01-29T00:21:28;103195.41;;;2.86;88.88
72157;BME280;60035;52.122;5.406;2023-01-29T00:23:56;103194.53;;;2.86;88.93
72157;BME280;60035;52.122;5.406;2023-01-29T00:26:23;103197.00;;;2.84;88.52
72157;BME280;60035;52.122;5.406;2023-01-29T00:28:50;103187.78;;;2.85;88.85
72157;BME280;60035;52.122;5.406;2023-01-29T00:31:19;103183.50;;;2.83;88.57
72157;BME280;60035;52.122;5.406;2023-01-29T00:33:47;103184.31;;;2.82;88.85
72157;BME280;60035;52.122;5.406;2023-01-29T00:36:15;103192.84;;;2.85;88.85
72157;BME280;60035;52.122;5.406;2023-01-29T00:38:42;103192.00;;;2.86;88.50
72157;BME280;60035;52.122;5.406;2023-01-29T00:41:12;103198.81;;;2.87;88.53
72157;BME280;60035;52.122;5.406;2023-01-29T00:43:58;103204.81;;;2.89;88.82
72157;BME280;60035;52.122;5.406;2023-01-29T00:46:44;103202.28;;;2.89;88.55
72157;BME280;60035;52.122;5.406;2023-01-29T00:49:11;103191.31;;;2.90;88.68
72157;BME280;60035;52.122;5.406;2023-01-29T00:51:38;103188.69;;;2.87;88.55
72157;BME280;60035;52.122;5.406;2023-01-29T00:54:05;103184.34;;;2.84;89.00
72157;BME280;60035;52.122;5.406;2023-01-29T00:56:35;103189.41;;;2.84;88.87
72157;BME280;60035;52.122;5.406;2023-01-29T00:59:03;103185.31;;;2.86;88.87
72157;BME280;60035;52.122;5.406;2023-01-29T01:01:29;103179.34;;;2.86;88.85
72157;BME280;60035;52.122;5.406;2023-01-29T01:04:15;103175.97;;;2.85;89.00
72157;BME280;60035;52.122;5.406;2023-01-29T01:06:42;103175.91;;;2.83;89.23
72157;BME280;60035;52.122;5.406;2023-01-29T01:09:09;103175.19;;;2.86;89.22
72157;BME280;60035;52.122;5.406;2023-01-29T01:11:55;103174.28;;;2.86;88.96
72157;BME280;60035;52.122;5.406;2023-01-29T01:14:21;103172.69;;;2.88;88.90
72157;BME280;60035;52.122;5.406;2023-01-29T01:16:48;103170.19;;;2.88;89.03
72157;BME280;60035;52.122;5.406;2023-01-29T01:19:15;103162.59;;;2.88;89.40
72157;BME280;60035;52.122;5.406;2023-01-29T01:21:42;103165.16;;;2.89;89.31
72157;BME280;60035;52.122;5.406;2023-01-29T01:24:11;103158.38;;;2.88;89.21
72157;BME280;60035;52.122;5.406;2023-01-29T01:26:38;103166.84;;;2.89;89.34
72157;BME280;60035;52.122;5.406;2023-01-29T01:29:05;103166.03;;;2.90;89.21
72157;BME280;60035;52.122;5.406;2023-01-29T01:31:32;103160.06;;;2.88;89.06
72157;BME280;60035;52.122;5.406;2023-01-29T01:33:59;103173.56;;;2.88;89.14
72157;BME280;60035;52.122;5.406;2023-01-29T01:36:25;103177.81;;;2.89;89.12
72157;BME280;60035;52.122;5.406;2023-01-29T01:38:52;103182.03;;;2.89;89.17
72157;BME280;60035;52.122;5.406;2023-01-29T01:41:21;103183.69;;;2.88;89.14
72157;BME280;60035;52.122;5.406;2023-01-29T01:46:15;103188.00;;;2.91;89.29
72157;BME280;60035;52.122;5.406;2023-01-29T01:48:43;103182.16;;;2.92;89.06
72157;BME280;60035;52.122;5.406;2023-01-29T01:51:12;103183.09;;;2.94;89.31
72157;BME280;60035;52.122;5.406;2023-01-29T01:53:46;103174.59;;;2.93;89.53
72157;BME280;60035;52.122;5.406;2023-01-29T01:56:23;103182.19;;;2.93;89.24
72157;BME280;60035;52.122;5.406;2023-01-29T01:58:54;103180.56;;;2.94;89.16
72157;BME280;60035;52.122;5.406;2023-01-29T02:01:24;103176.34;;;2.94;89.22
72157;BME280;60035;52.122;5.406;2023-01-29T02:04:01;103176.41;;;2.96;89.23
72157;BME280;60035;52.122;5.406;2023-01-29T02:06:50;103174.66;;;2.95;89.32
72157;BME280;60035;52.122;5.406;2023-01-29T02:09:41;103173.81;;;2.94;89.31
72157;BME280;60035;52.122;5.406;2023-01-29T02:12:14;103177.19;;;2.95;89.38
72157;BME280;60035;52.122;5.406;2023-01-29T02:14:42;103180.56;;;2.94;89.10
72157;BME280;60035;52.122;5.406;2023-01-29T02:17:12;103177.09;;;2.92;89.43
72157;BME280;60035;52.122;5.406;2023-01-29T02:25:20;103171.03;;;2.88;89.29
72157;BME280;60035;52.122;5.406;2023-01-29T02:28:11;103182.88;;;2.89;89.49
72157;BME280;60035;52.122;5.406;2023-01-29T02:30:52;103177.66;;;2.85;89.19
72157;BME280;60035;52.122;5.406;2023-01-29T02:33:43;103178.50;;;2.85;89.42
72157;BME280;60035;52.122;5.406;2023-01-29T02:36:36;103178.56;;;2.87;89.34
72157;BME280;60035;52.122;5.406;2023-01-29T02:39:18;103192.22;;;2.90;89.47
72157;BME280;60035;52.122;5.406;2023-01-29T02:44:40;103196.38;;;2.90;89.08
72157;BME280;60035;52.122;5.406;2023-01-29T02:47:32;103192.16;;;2.89;89.16
72157;BME280;60035;52.122;5.406;2023-01-29T02:53:07;103195.41;;;2.86;89.37
72157;BME280;60035;52.122;5.406;2023-01-29T02:58:24;103191.94;;;2.84;89.60
72157;BME280;60035;52.122;5.406;2023-01-29T03:00:55;103190.31;;;2.85;89.37
72157;BME280;60035;52.122;5.406;2023-01-29T03:03:25;103192.00;;;2.86;89.33
72157;BME280;60035;52.122;5.406;2023-01-29T03:06:19;103190.41;;;2.88;89.59
72157;BME280;60035;52.122;5.406;2023-01-29T03:09:03;103189.47;;;2.86;89.71
72157;BME280;60035;52.122;5.406;2023-01-29T03:11:40;103184.41;;;2.86;89.57
72157;BME280;60035;52.122;5.406;2023-01-29T03:14:15;103178.56;;;2.87;89.58
72157;BME280;60035;52.122;5.406;2023-01-29T03:16:49;103177.66;;;2.85;89.39
72157;BME280;60035;52.122;5.406;2023-01-29T03:19:23;103170.13;;;2.86;89.86
72157;BME280;60035;52.122;5.406;2023-01-29T03:21:55;103169.38;;;2.89;89.43
72157;BME280;60035;52.122;5.406;2023-01-29T03:24:49;103167.69;;;2.89;89.83
72157;BME280;60035;52.122;5.406;2023-01-29T03:27:48;103153.38;;;2.90;89.60
72157;BME280;60035;52.122;5.406;2023-01-29T03:30:36;103160.09;;;2.89;89.81
72157;BME280;60035;52.122;5.406;2023-01-29T03:33:25;103152.56;;;2.91;89.71
72157;BME280;60035;52.122;5.406;2023-01-29T03:35:58;103141.59;;;2.90;89.83
72157;BME280;60035;52.122;5.406;2023-01-29T03:38:28;103143.25;;;2.90;89.69
72157;BME280;60035;52.122;5.406;2023-01-29T03:47:25;103131.28;;;2.86;90.13
72157;BME280;60035;52.122;5.406;2023-01-29T03:55:42;103127.91;;;2.85;90.25
72157;BME280;60035;52.122;5.406;2023-01-29T03:58:38;103123.69;;;2.86;90.44
72157;BME280;60035;52.122;5.406;2023-01-29T04:01:10;103122.94;;;2.88;90.41
72157;BME280;60035;52.122;5.406;2023-01-29T04:03:41;103120.31;;;2.85;90.26
72157;BME280;60035;52.122;5.406;2023-01-29T04:06:12;103116.97;;;2.86;90.34
72157;BME280;60035;52.122;5.406;2023-01-29T04:09:03;103117.03;;;2.88;90.21
72157;BME280;60035;52.122;5.406;2023-01-29T04:11:33;103106.06;;;2.87;90.48
72157;BME280;60035;52.122;5.406;2023-01-29T04:14:03;103111.03;;;2.86;89.81
72157;BME280;60035;52.122;5.406;2023-01-29T04:16:37;103105.91;;;2.84;89.93
72157;BME280;60035;52.122;5.406;2023-01-29T04:19:05;103105.19;;;2.87;90.13
72157;BME280;60035;52.122;5.406;2023-01-29T04:21:34;103105.19;;;2.87;89.78
72157;BME280;60035;52.122;5.406;2023-01-29T04:24:04;103100.75;;;2.81;89.91
72157;BME280;60035;52.122;5.406;2023-01-29T04:40:33;103101.25;;;2.72;89.73
72157;BME280;60035;52.122;5.406;2023-01-29T04:51:17;103093.53;;;2.69;89.80
72157;BME280;60035;52.122;5.406;2023-01-29T04:53:53;103085.91;;;2.67;89.41
72157;BME280;60035;52.122;5.406;2023-01-29T04:56:29;103075.72;;;2.66;89.76
72157;BME280;60035;52.122;5.406;2023-01-29T04:59:05;103073.06;;;2.63;89.35
72157;BME280;60035;52.122;5.406;2023-01-29T05:01:34;103075.63;;;2.64;89.47
72157;BME280;60035;52.122;5.406;2023-01-29T05:04:04;103073.84;;;2.62;89.84
72157;BME280;60035;52.122;5.406;2023-01-29T05:06:34;103069.63;;;2.61;89.50
72157;BME280;60035;52.122;5.406;2023-01-29T05:09:01;103073.06;;;2.63;89.51
72157;BME280;60035;52.122;5.406;2023-01-29T05:11:30;103065.34;;;2.60;89.42
72157;BME280;60035;52.122;5.406;2023-01-29T05:14:00;103070.34;;;2.58;89.50
72157;BME280;60035;52.122;5.406;2023-01-29T05:16:32;103071.22;;;2.59;89.49
72157;BME280;60035;52.122;5.406;2023-01-29T05:19:11;103064.47;;;2.59;89.45
72157;BME280;60035;52.122;5.406;2023-01-29T05:21:41;103069.53;;;2.59;89.31
72157;BME280;60035;52.122;5.406;2023-01-29T05:24:17;103069.53;;;2.59;89.39
72157;BME280;60035;52.122;5.406;2023-01-29T05:26:46;103072.94;;;2.60;89.05
72157;BME280;60035;52.122;5.406;2023-01-29T05:29:32;103085.59;;;2.60;89.27
72157;BME280;60035;52.122;5.406;2023-01-29T05:31:59;103080.41;;;2.57;89.02
72157;BME280;60035;52.122;5.406;2023-01-29T05:34:26;103089.59;;;2.55;88.90
72157;BME280;60035;52.122;5.406;2023-01-29T05:36:52;103082.06;;;2.56;89.04
72157;BME280;60035;52.122;5.406;2023-01-29T05:39:19;103082.13;;;2.58;89.16
72157;BME280;60035;52.122;5.406;2023-01-29T05:41:46;103084.59;;;2.56;88.84
72157;BME280;60035;52.122;5.406;2023-01-29T05:44:13;103080.41;;;2.57;88.82
72157;BME280;60035;52.122;5.406;2023-01-29T05:46:39;103074.41;;;2.55;89.05
72157;BME280;60035;52.122;5.406;2023-01-29T05:49:06;103080.28;;;2.54;88.81
72157;BME280;60035;52.122;5.406;2023-01-29T05:51:32;103083.69;;;2.54;88.95
72157;BME280;60035;52.122;5.406;2023-01-29T05:53:59;103082.06;;;2.56;88.51
72157;BME280;60035;52.122;5.406;2023-01-29T05:56:27;103078.75;;;2.57;88.81
72157;BME280;60035;52.122;5.406;2023-01-29T05:58:54;103070.22;;;2.55;88.62
72157;BME280;60035;52.122;5.406;2023-01-29T06:01:23;103057.66;;;2.57;88.56
72157;BME280;60035;52.122;5.406;2023-01-29T06:03:50;103049.94;;;2.54;88.48
72157;BME280;60035;52.122;5.406;2023-01-29T06:06:17;103058.31;;;2.53;88.58
72157;BME280;60035;52.122;5.406;2023-01-29T06:08:44;103049.06;;;2.53;88.37
72157;BME280;60035;52.122;5.406;2023-01-29T06:11:12;103050.81;;;2.54;88.52
72157;BME280;60035;52.122;5.406;2023-01-29T06:13:39;103041.53;;;2.55;88.41
72157;BME280;60035;52.122;5.406;2023-01-29T06:16:07;103037.22;;;2.52;88.39
72157;BME280;60035;52.122;5.406;2023-01-29T06:18:38;103038.97;;;2.53;88.69
72157;BME280;60035;52.122;5.406;2023-01-29T06:21:08;103044.03;;;2.53;88.36
72157;BME280;60035;52.122;5.406;2023-01-29T06:23:35;103038.06;;;2.53;88.19
72157;BME280;60035;52.122;5.406;2023-01-29T06:26:07;103035.56;;;2.53;88.08
72157;BME280;60035;52.122;5.406;2023-01-29T06:28:34;103037.28;;;2.54;88.08
72157;BME280;60035;52.122;5.406;2023-01-29T06:31:02;103033.84;;;2.52;87.92
72157;BME280;60035;52.122;5.406;2023-01-29T06:33:49;103023.72;;;2.52;87.92
72157;BME280;60035;52.122;5.406;2023-01-29T06:36:16;103026.31;;;2.53;87.82
72157;BME280;60035;52.122;5.406;2023-01-29T06:38:42;103032.16;;;2.52;87.31
72157;BME280;60035;52.122;5.406;2023-01-29T06:41:11;103023.72;;;2.52;87.83
72157;BME280;60035;52.122;5.406;2023-01-29T06:43:38;103026.31;;;2.53;87.63
72157;BME280;60035;52.122;5.406;2023-01-29T06:46:06;103027.22;;;2.55;87.58
72157;BME280;60035;52.122;5.406;2023-01-29T06:48:33;103023.84;;;2.55;87.53
72157;BME280;60035;52.122;5.406;2023-01-29T06:51:04;103037.41;;;2.57;87.44
72157;BME280;60035;52.122;5.406;2023-01-29T06:53:33;103032.41;;;2.58;87.41
72157;BME280;60035;52.122;5.406;2023-01-29T06:55:59;103029.00;;;2.58;87.11
72157;BME280;60035;52.122;5.406;2023-01-29T06:58:26;103024.78;;;2.57;86.98
72157;BME280;60035;52.122;5.406;2023-01-29T07:00:53;103034.06;;;2.58;87.36
72157;BME280;60035;52.122;5.406;2023-01-29T07:03:19;103034.91;;;2.57;86.98
72157;BME280;60035;52.122;5.406;2023-01-29T07:05:51;103029.84;;;2.57;87.27
72157;BME280;60035;52.122;5.406;2023-01-29T07:08:18;103023.94;;;2.58;87.18
72157;BME280;60035;52.122;5.406;2023-01-29T07:10:48;103023.16;;;2.59;87.25
72157;BME280;60035;52.122;5.406;2023-01-29T07:13:18;103030.78;;;2.60;86.91
72157;BME280;60035;52.122;5.406;2023-01-29T07:15:44;103029.94;;;2.60;87.23
72157;BME280;60035;52.122;5.406;2023-01-29T07:18:11;103017.34;;;2.61;87.10
72157;BME280;60035;52.122;5.406;2023-01-29T07:20:39;103025.75;;;2.60;87.27
72157;BME280;60035;52.122;5.406;2023-01-29T07:23:07;103025.63;;;2.57;87.36
72157;BME280;60035;52.122;5.406;2023-01-29T07:25:36;103034.00;;;2.56;87.15
72157;BME280;60035;52.122;5.406;2023-01-29T07:28:03;103027.31;;;2.57;87.32
72157;BME280;60035;52.122;5.406;2023-01-29T07:30:30;103029.06;;;2.59;87.13
72157;BME280;60035;52.122;5.406;2023-01-29T07:33:15;103022.34;;;2.60;87.45
72157;BME280;60035;52.122;5.406;2023-01-29T07:35:42;103023.22;;;2.60;87.23
72157;BME280;60035;52.122;5.406;2023-01-29T07:38:10;103030.78;;;2.60;87.48
72157;BME280;60035;52.122;5.406;2023-01-29T07:40:39;103019.03;;;2.61;87.03
72157;BME280;60035;52.122;5.406;2023-01-29T07:43:06;103014.78;;;2.60;87.13
72157;BME280;60035;52.122;5.406;2023-01-29T07:45:38;103018.22;;;2.62;87.17
72157;BME280;60035;52.122;5.406;2023-01-29T07:48:06;103007.28;;;2.63;87.25
72157;BME280;60035;52.122;5.406;2023-01-29T07:50:35;103009.03;;;2.64;87.16
72157;BME280;60035;52.122;5.406;2023-01-29T07:53:02;103011.56;;;2.64;87.16
72157;BME280;60035;52.122;5.406;2023-01-29T07:55:29;103008.22;;;2.65;87.00
72157;BME280;60035;52.122;5.406;2023-01-29T08:00:23;102993.09;;;2.66;86.92
72157;BME280;60035;52.122;5.406;2023-01-29T08:02:50;102989.84;;;2.69;87.15
72157;BME280;60035;52.122;5.406;2023-01-29T08:05:17;102989.03;;;2.70;86.86
72157;BME280;60035;52.122;5.406;2023-01-29T08:07:44;102990.72;;;2.71;87.14
72157;BME280;60035;52.122;5.406;2023-01-29T08:10:23;102987.41;;;2.72;86.79
72157;BME280;60035;52.122;5.406;2023-01-29T08:12:57;102987.47;;;2.74;86.75
72157;BME280;60035;52.122;5.406;2023-01-29T08:15:26;102974.91;;;2.75;86.36
72157;BME280;60035;52.122;5.406;2023-01-29T08:17:53;102978.28;;;2.76;86.59
72157;BME280;60035;52.122;5.406;2023-01-29T08:20:24;102983.34;;;2.76;86.16
72157;BME280;60035;52.122;5.406;2023-01-29T08:22:58;102978.31;;;2.77;86.10
72157;BME280;60035;52.122;5.406;2023-01-29T08:25:25;102976.72;;;2.79;85.93
72157;BME280;60035;52.122;5.406;2023-01-29T08:27:52;102980.16;;;2.81;86.07
72157;BME280;60035;52.122;5.406;2023-01-29T08:30:19;102972.72;;;2.85;86.14
72157;BME280;60035;52.122;5.406;2023-01-29T08:32:46;102971.97;;;2.87;85.99
72157;BME280;60035;52.122;5.406;2023-01-29T08:35:12;102966.94;;;2.89;85.56
72157;BME280;60035;52.122;5.406;2023-01-29T08:37:39;102970.34;;;2.89;85.75
72157;BME280;60035;52.122;5.406;2023-01-29T08:40:06;102962.78;;;2.91;85.80
72157;BME280;60035;52.122;5.406;2023-01-29T08:42:35;102960.41;;;2.94;85.48
72157;BME280;60035;52.122;5.406;2023-01-29T08:45:01;102954.50;;;2.95;85.36
72157;BME280;60035;52.122;5.406;2023-01-29T08:47:30;102955.44;;;2.97;85.27
72157;BME280;60035;52.122;5.406;2023-01-29T08:49:56;102954.63;;;2.98;85.16
72157;BME280;60035;52.122;5.406;2023-01-29T08:52:23;102947.91;;;2.98;84.98
72157;BME280;60035;52.122;5.406;2023-01-29T08:54:50;102949.78;;;3.04;85.24
72157;BME280;60035;52.122;5.406;2023-01-29T08:57:16;102944.84;;;3.07;85.07
72157;BME280;60035;52.122;5.406;2023-01-29T08:59:43;102946.50;;;3.07;85.32
72157;BME280;60035;52.122;5.406;2023-01-29T09:02:10;102949.03;;;3.07;84.70
72157;BME280;60035;52.122;5.406;2023-01-29T09:04:37;102951.63;;;3.08;84.77
72157;BME280;60035;52.122;5.406;2023-01-29T09:07:03;102940.69;;;3.09;84.72
72157;BME280;60035;52.122;5.406;2023-01-29T09:09:30;102948.41;;;3.12;84.13
72157;BME280;60035;52.122;5.406;2023-01-29T09:11:57;102952.63;;;3.13;84.28
72157;BME280;60035;52.122;5.406;2023-01-29T09:14:24;102945.91;;;3.14;84.49
72157;BME280;60035;52.122;5.406;2023-01-29T09:16:50;102949.31;;;3.14;84.29
72157;BME280;60035;52.122;5.406;2023-01-29T09:19:17;102946.81;;;3.16;84.07
72157;BME280;60035;52.122;5.406;2023-01-29T09:21:43;102937.56;;;3.16;84.04
72157;BME280;60035;52.122;5.406;2023-01-29T09:24:10;102946.06;;;3.19;83.87
72157;BME280;60035;52.122;5.406;2023-01-29T09:26:37;102945.44;;;3.24;84.10
72157;BME280;60035;52.122;5.406;2023-01-29T09:29:05;102947.22;;;3.27;83.98
72157;BME280;60035;52.122;5.406;2023-01-29T09:31:32;102952.38;;;3.30;83.74
72157;BME280;60035;52.122;5.406;2023-01-29T09:33:59;102953.22;;;3.30;83.74
72157;BME280;60035;52.122;5.406;2023-01-29T09:36:25;102952.44;;;3.31;83.58
72157;BME280;60035;52.122;5.406;2023-01-29T09:38:52;102949.09;;;3.32;83.66
72157;BME280;60035;52.122;5.406;2023-01-29T09:47:15;102951.19;;;3.44;83.46
72157;BME280;60035;52.122;5.406;2023-01-29T09:49:46;102948.59;;;3.43;83.32
72157;BME280;60035;52.122;5.406;2023-01-29T09:55:11;102946.97;;;3.45;82.85
72157;BME280;60035;52.122;5.406;2023-01-29T09:57:48;102939.59;;;3.51;83.24
72157;BME280;60035;52.122;5.406;2023-01-29T10:09:29;102934.94;;;3.63;82.84
72157;BME280;60035;52.122;5.406;2023-01-29T10:12:49;102933.41;;;3.69;82.78
72157;BME280;60035;52.122;5.406;2023-01-29T10:15:33;102935.09;;;3.68;82.52
72157;BME280;60035;52.122;5.406;2023-01-29T10:18:32;102925.84;;;3.70;82.31
72157;BME280;60035;52.122;5.406;2023-01-29T10:23:40;102926.03;;;3.75;82.62
72157;BME280;60035;52.122;5.406;2023-01-29T10:26:12;102923.44;;;3.73;82.34
72157;BME280;60035;52.122;5.406;2023-01-29T10:28:44;102920.91;;;3.73;82.35
72157;BME280;60035;52.122;5.406;2023-01-29T10:33:53;102916.66;;;3.72;82.48
72157;BME280;60035;52.122;5.406;2023-01-29T10:36:38;102911.63;;;3.74;82.26
72157;BME280;60035;52.122;5.406;2023-01-29T10:39:29;102901.41;;;3.71;82.25
72157;BME280;60035;52.122;5.406;2023-01-29T10:44:48;102889.66;;;3.74;82.43
72157;BME280;60035;52.122;5.406;2023-01-29T10:50:23;102877.22;;;3.80;82.60
72157;BME280;60035;52.122;5.406;2023-01-29T10:55:37;102871.41;;;3.84;82.18
72157;BME280;60035;52.122;5.406;2023-01-29T10:58:29;102871.53;;;3.88;82.13
72157;BME280;60035;52.122;5.406;2023-01-29T11:00:58;102859.78;;;3.91;81.85
72157;BME280;60035;52.122;5.406;2023-01-29T11:03:26;102860.69;;;3.92;81.89
72157;BME280;60035;52.122;5.406;2023-01-29T11:08:38;102857.41;;;3.96;81.94
72157;BME280;60035;52.122;5.406;2023-01-29T11:11:13;102858.25;;;3.96;81.91
72157;BME280;60035;52.122;5.406;2023-01-29T11:14:01;102851.59;;;3.98;81.73
72157;BME280;60035;52.122;5.406;2023-01-29T11:16:44;102838.06;;;3.99;81.70
72157;BME280;60035;52.122;5.406;2023-01-29T11:19:15;102835.53;;;3.99;81.61
72157;BME280;60035;52.122;5.406;2023-01-29T11:21:56;102847.44;;;4.02;82.03
72157;BME280;60035;52.122;5.406;2023-01-29T11:24:23;102836.50;;;4.03;81.77
72157;BME280;60035;52.122;5.406;2023-01-29T11:26:58;102838.19;;;4.03;81.95
72157;BME280;60035;52.122;5.406;2023-01-29T11:29:36;102835.59;;;4.01;81.65
72157;BME280;60035;52.122;5.406;2023-01-29T11:32:07;102829.69;;;4.02;81.83
72157;BME280;60035;52.122;5.406;2023-01-29T11:37:21;102828.03;;;4.03;81.91
72157;BME280;60035;52.122;5.406;2023-01-29T11:39:49;102826.34;;;4.03;82.02
72157;BME280;60035;52.122;5.406;2023-01-29T11:42:20;102822.22;;;4.05;81.69
72157;BME280;60035;52.122;5.406;2023-01-29T11:44:48;102817.94;;;4.04;82.13
72157;BME280;60035;52.122;5.406;2023-01-29T11:49:52;102812.81;;;4.01;82.05
72157;BME280;60035;52.122;5.406;2023-01-29T11:52:22;102811.97;;;4.02;82.51
72157;BME280;60035;52.122;5.406;2023-01-29T11:54:56;102807.72;;;4.01;82.26
72157;BME280;60035;52.122;5.406;2023-01-29T11:57:28;102801.78;;;4.00;82.53
72157;BME280;60035;52.122;5.406;2023-01-29T11:59:59;102809.44;;;4.02;82.88
72157;BME280;60035;52.122;5.406;2023-01-29T12:02:32;102789.16;;;4.02;82.50
72157;BME280;60035;52.122;5.406;2023-01-29T12:05:06;102790.78;;;4.00;82.45
72157;BME280;60035;52.122;5.406;2023-01-29T12:07:41;102793.31;;;4.00;83.12
72157;BME280;60035;52.122;5.406;2023-01-29T12:10:29;102795.06;;;4.01;83.42
72157;BME280;60035;52.122;5.406;2023-01-29T12:13:19;102786.56;;;4.00;83.12
72157;BME280;60035;52.122;5.406;2023-01-29T12:15:47;102778.13;;;4.00;83.27
72157;BME280;60035;52.122;5.406;2023-01-29T12:20:46;102768.06;;;4.03;83.49
72157;BME280;60035;52.122;5.406;2023-01-29T12:23:24;102761.34;;;4.04;83.83
72157;BME280;60035;52.122;5.406;2023-01-29T12:26:12;102750.28;;;4.02;83.84
72157;BME280;60035;52.122;5.406;2023-01-29T12:31:57;102732.53;;;4.02;84.32
72157;BME280;60035;52.122;5.406;2023-01-29T12:34:43;102741.84;;;4.03;84.30
72157;BME280;60035;52.122;5.406;2023-01-29T12:37:24;102734.25;;;4.03;84.28
72157;BME280;60035;52.122;5.406;2023-01-29T12:39:56;102730.91;;;4.04;84.10
72157;BME280;60035;52.122;5.406;2023-01-29T12:42:23;102736.03;;;4.05;84.21
72157;BME280;60035;52.122;5.406;2023-01-29T12:44:57;102725.97;;;4.08;84.26
72157;BME280;60035;52.122;5.406;2023-01-29T12:47:33;102709.06;;;4.09;84.18
72157;BME280;60035;52.122;5.406;2023-01-29T12:50:28;102707.41;;;4.09;84.11
72157;BME280;60035;52.122;5.406;2023-01-29T12:55:31;102695.56;;;4.10;84.26
72157;BME280;60035;52.122;5.406;2023-01-29T12:58:04;102684.59;;;4.09;84.36
72157;BME280;60035;52.122;5.406;2023-01-29T13:00:37;102678.72;;;4.10;84.19
72157;BME280;60035;52.122;5.406;2023-01-29T13:05:54;102656.69;;;4.09;84.52
72157;BME280;60035;52.122;5.406;2023-01-29T13:08:25;102646.56;;;4.09;84.35
72157;BME280;60035;52.122;5.406;2023-01-29T13:10:56;102644.81;;;4.07;84.48
72157;BME280;60035;52.122;5.406;2023-01-29T13:13:30;102645.66;;;4.07;84.66
72157;BME280;60035;52.122;5.406;2023-01-29T13:15:59;102635.50;;;4.07;84.58
72157;BME280;60035;52.122;5.406;2023-01-29T13:18:42;102625.38;;;4.07;84.88
72157;BME280;60035;52.122;5.406;2023-01-29T13:21:16;102611.06;;;4.09;85.18
72157;BME280;60035;52.122;5.406;2023-01-29T13:23:49;102604.41;;;4.13;84.83
72157;BME280;60035;52.122;5.406;2023-01-29T13:26:17;102592.66;;;4.16;85.06
72157;BME280;60035;52.122;5.406;2023-01-29T13:28:45;102588.59;;;4.23;85.28
72157;BME280;60035;52.122;5.406;2023-01-29T13:33:53;102584.69;;;4.36;84.95
72157;BME280;60035;52.122;5.406;2023-01-29T13:36:25;102583.06;;;4.38;84.58
72157;BME280;60035;52.122;5.406;2023-01-29T13:39:07;102583.09;;;4.40;84.25
72157;BME280;60035;52.122;5.406;2023-01-29T13:41:42;102574.59;;;4.39;84.34
72157;BME280;60035;52.122;5.406;2023-01-29T13:44:37;102576.38;;;4.42;84.29
72157;BME280;60035;52.122;5.406;2023-01-29T13:47:08;102572.22;;;4.45;84.64
72157;BME280;60035;52.122;5.406;2023-01-29T13:49:41;102568.09;;;4.49;84.31
72157;BME280;60035;52.122;5.406;2023-01-29T13:57:51;102565.63;;;4.52;84.28
72157;BME280;60035;52.122;5.406;2023-01-29T14:07:57;102561.63;;;4.62;84.57
72157;BME280;60035;52.122;5.406;2023-01-29T14:10:27;102564.19;;;4.62;84.27
72157;BME280;60035;52.122;5.406;2023-01-29T14:18:26;102555.81;;;4.66;84.52
72157;BME280;60035;52.122;5.406;2023-01-29T14:21:05;102549.94;;;4.69;84.92
72157;BME280;60035;52.122;5.406;2023-01-29T14:23:48;102544.03;;;4.70;84.38
72157;BME280;60035;52.122;5.406;2023-01-29T14:26:26;102546.63;;;4.71;84.84
72157;BME280;60035;52.122;5.406;2023-01-29T14:31:30;102554.25;;;4.71;84.63
72157;BME280;60035;52.122;5.406;2023-01-29T14:34:02;102549.19;;;4.73;84.94
72157;BME280;60035;52.122;5.406;2023-01-29T14:36:38;102544.16;;;4.74;85.02
72157;BME280;60035;52.122;5.406;2023-01-29T14:39:05;102539.91;;;4.75;84.82
72157;BME280;60035;52.122;5.406;2023-01-29T14:41:33;102529.75;;;4.75;84.78
72157;BME280;60035;52.122;5.406;2023-01-29T14:47:17;102529.75;;;4.75;85.01
72157;BME280;60035;52.122;5.406;2023-01-29T14:52:15;102528.06;;;4.74;85.02
72157;BME280;60035;52.122;5.406;2023-01-29T14:54:45;102528.06;;;4.74;84.63
72157;BME280;60035;52.122;5.406;2023-01-29T14:57:15;102527.97;;;4.69;84.74
72157;BME280;60035;52.122;5.406;2023-01-29T15:02:21;102517.81;;;4.69;84.95
72157;BME280;60035;52.122;5.406;2023-01-29T15:04:55;102502.56;;;4.67;85.09
72157;BME280;60035;52.122;5.406;2023-01-29T15:10:04;102503.41;;;4.68;85.05
72157;BME280;60035;52.122;5.406;2023-01-29T15:20:35;102486.56;;;4.72;85.30
72157;BME280;60035;52.122;5.406;2023-01-29T15:23:03;102485.72;;;4.71;85.36
72157;BME280;60035;52.122;5.406;2023-01-29T15:25:50;102489.06;;;4.69;85.34
72157;BME280;60035;52.122;5.406;2023-01-29T15:28:18;102492.44;;;4.69;85.03
72157;BME280;60035;52.122;5.406;2023-01-29T15:30:50;102489.88;;;4.67;85.15
72157;BME280;60035;52.122;5.406;2023-01-29T15:33:19;102488.09;;;4.63;85.38
72157;BME280;60035;52.122;5.406;2023-01-29T15:35:46;102477.06;;;4.63;85.35
72157;BME280;60035;52.122;5.406;2023-01-29T15:38:23;102476.22;;;4.62;85.62
72157;BME280;60035;52.122;5.406;2023-01-29T15:41:00;102471.16;;;4.62;85.67
72157;BME280;60035;52.122;5.406;2023-01-29T15:43:35;102467.72;;;4.60;85.44
72157;BME280;60035;52.122;5.406;2023-01-29T15:46:23;102470.22;;;4.59;85.65
72157;BME280;60035;52.122;5.406;2023-01-29T15:48:52;102466.84;;;4.58;85.91
72157;BME280;60035;52.122;5.406;2023-01-29T15:51:23;102458.31;;;4.56;85.99
72157;BME280;60035;52.122;5.406;2023-01-29T15:53:54;102454.94;;;4.56;85.81